sensor_id;sensor_type;location;lat;lon;timestamp;pressure;altitude;pressure_sealevel;temperature;humidity
12219;BME280;6172;42.646;23.344;2022-08-24T00:05:21;94439.28;;;15.80;100.00
12219;BME280;6172;42.646;23.344;2022-08-24T00:07:51;94440.84;;;15.90;100.00
12219;BME280;6172;42.646;23.344;2022-08-24T00:10:20;94461.34;;;16.07;100.00
12219;BME280;6172;42.646;23.344;2022-08-24T00:23:04;94479.97;;;16.03;100.00
12219;BME280;6172;42.646;23.344;2022-08-24T00:25:34;94476.47;;;16.03;100.00
12219;BME280;6172;42.646;23.344;2022-08-24T00:31:34;94488.19;;;15.94;100.00
12219;BME280;6172;42.646;23.344;2022-08-24T00:34:02;94502.72;;;16.04;100.00
12219;BME280;6172;42.646;23.344;2022-08-24T00:36:31;94504.13;;;16.08;100.00
12219;BME280;6172;42.646;23.344;2022-08-24T00:39:23;94484.94;;;15.87;100.00
12219;BME280;6172;42.646;23.344;2022-08-24T00:42:26;94512.97;;;16.03;100.00
12219;BME280;6172;42.646;23.344;2022-08-24T00:45:41;94477.25;;;15.73;100.00
12219;BME280;6172;42.646;23.344;2022-08-24T00:59:21;94506.19;;;15.95;100.00
12219;BME280;6172;42.646;23.344;2022-08-24T01:01:50;94502.50;;;15.89;100.00
12219;BME280;6172;42.646;23.344;2022-08-24T01:04:26;94496.25;;;15.89;100.00
12219;BME280;6172;42.646;23.344;2022-08-24T01:06:55;94531.31;;;16.06;100.00
12219;BME280;6172;42.646;23.344;2022-08-24T01:12:44;94503.63;;;15.70;100.00
12219;BME280;6172;42.646;23.344;2022-08-24T01:15:15;94539.81;;;15.99;100.00
12219;BME280;6172;42.646;23.344;2022-08-24T01:17:46;94533.56;;;15.99;100.00
12219;BME280;6172;42.646;23.344;2022-08-24T01:20:31;94553.78;;;16.14;100.00
12219;BME280;6172;42.646;23.344;2022-08-24T01:26:31;94545.94;;;16.03;100.00
12219;BME280;6172;42.646;23.344;2022-08-24T01:29:04;94532.50;;;15.96;100.00
12219;BME280;6172;42.646;23.344;2022-08-24T01:32:21;94536.47;;;16.04;100.00
12219;BME280;6172;42.646;23.344;2022-08-24T01:38:13;94566.50;;;16.20;100.00
12219;BME280;6172;42.646;23.344;2022-08-24T01:40:44;94544.44;;;16.11;100.00
12219;BME280;6172;42.646;23.344;2022-08-24T01:43:14;94557.47;;;16.20;100.00
12219;BME280;6172;42.646;23.344;2022-08-24T01:45:42;94569.28;;;16.29;100.00
12219;BME280;6172;42.646;23.344;2022-08-24T01:48:10;94570.47;;;16.28;100.00
12219;BME280;6172;42.646;23.344;2022-08-24T01:50:41;94545.09;;;16.24;100.00
12219;BME280;6172;42.646;23.344;2022-08-24T01:53:10;94548.00;;;16.21;100.00
12219;BME280;6172;42.646;23.344;2022-08-24T01:55:37;94545.25;;;16.21;100.00
12219;BME280;6172;42.646;23.344;2022-08-24T01:58:07;94566.16;;;16.18;100.00
12219;BME280;6172;42.646;23.344;2022-08-24T02:00:38;94558.84;;;16.24;100.00
12219;BME280;6172;42.646;23.344;2022-08-24T02:03:06;94561.28;;;16.13;100.00
12219;BME280;6172;42.646;23.344;2022-08-24T02:05:34;94557.22;;;15.96;100.00
12219;BME280;6172;42.646;23.344;2022-08-24T02:08:02;94588.31;;;16.15;100.00
12219;BME280;6172;42.646;23.344;2022-08-24T02:10:31;94559.19;;;15.96;100.00
12219;BME280;6172;42.646;23.344;2022-08-24T02:13:03;94578.03;;;16.06;100.00
12219;BME280;6172;42.646;23.344;2022-08-24T02:15:33;94592.41;;;16.10;100.00
12219;BME280;6172;42.646;23.344;2022-08-24T02:18:07;94599.31;;;16.15;100.00
12219;BME280;6172;42.646;23.344;2022-08-24T02:20:36;94585.50;;;16.06;100.00
12219;BME280;6172;42.646;23.344;2022-08-24T02:23:06;94575.25;;;15.97;100.00
12219;BME280;6172;42.646;23.344;2022-08-24T02:25:35;94596.19;;;16.04;100.00
12219;BME280;6172;42.646;23.344;2022-08-24T02:28:16;94600.78;;;16.07;100.00
12219;BME280;6172;42.646;23.344;2022-08-24T02:30:48;94581.97;;;15.96;100.00
12219;BME280;6172;42.646;23.344;2022-08-24T02:36:58;94592.53;;;16.07;100.00
12219;BME280;6172;42.646;23.344;2022-08-24T02:39:39;94583.53;;;16.06;100.00
12219;BME280;6172;42.646;23.344;2022-08-24T02:42:20;94599.59;;;16.17;100.00
12219;BME280;6172;42.646;23.344;2022-08-24T02:45:01;94589.16;;;16.03;100.00
12219;BME280;6172;42.646;23.344;2022-08-24T02:47:30;94609.22;;;16.12;100.00
12219;BME280;6172;42.646;23.344;2022-08-24T02:50:12;94593.44;;;16.04;100.00
12219;BME280;6172;42.646;23.344;2022-08-24T02:52:58;94567.38;;;15.87;100.00
12219;BME280;6172;42.646;23.344;2022-08-24T02:55:28;94601.22;;;16.05;100.00
12219;BME280;6172;42.646;23.344;2022-08-24T02:57:59;94576.91;;;15.95;100.00
12219;BME280;6172;42.646;23.344;2022-08-24T03:00:34;94573.72;;;15.96;100.00
12219;BME280;6172;42.646;23.344;2022-08-24T03:03:05;94589.03;;;16.06;100.00
12219;BME280;6172;42.646;23.344;2022-08-24T03:05:34;94585.69;;;16.11;100.00
12219;BME280;6172;42.646;23.344;2022-08-24T03:08:03;94592.13;;;16.17;100.00
12219;BME280;6172;42.646;23.344;2022-08-24T03:10:31;94597.81;;;16.23;100.00
12219;BME280;6172;42.646;23.344;2022-08-24T03:12:58;94577.94;;;16.19;100.00
12219;BME280;6172;42.646;23.344;2022-08-24T03:15:34;94595.09;;;16.32;100.00
12219;BME280;6172;42.646;23.344;2022-08-24T03:18:02;94570.19;;;16.26;100.00
12219;BME280;6172;42.646;23.344;2022-08-24T03:20:31;94556.66;;;16.10;100.00
12219;BME280;6172;42.646;23.344;2022-08-24T03:22:58;94567.38;;;16.17;100.00
12219;BME280;6172;42.646;23.344;2022-08-24T03:25:52;94582.09;;;16.32;100.00
12219;BME280;6172;42.646;23.344;2022-08-24T03:28:22;94577.75;;;16.13;100.00
12219;BME280;6172;42.646;23.344;2022-08-24T03:30:50;94592.94;;;16.27;100.00
12219;BME280;6172;42.646;23.344;2022-08-24T03:33:22;94582.66;;;16.18;100.00
12219;BME280;6172;42.646;23.344;2022-08-24T03:35:50;94582.22;;;16.20;100.00
12219;BME280;6172;42.646;23.344;2022-08-24T03:38:30;94559.66;;;15.94;100.00
12219;BME280;6172;42.646;23.344;2022-08-24T03:41:37;94581.41;;;16.10;100.00
12219;BME280;6172;42.646;23.344;2022-08-24T03:44:19;94593.63;;;16.09;100.00
12219;BME280;6172;42.646;23.344;2022-08-24T03:46:59;94597.03;;;16.22;100.00
12219;BME280;6172;42.646;23.344;2022-08-24T03:49:34;94612.50;;;16.29;100.00
12219;BME280;6172;42.646;23.344;2022-08-24T03:53:04;94572.13;;;16.17;100.00
12219;BME280;6172;42.646;23.344;2022-08-24T04:05:47;94585.00;;;16.29;100.00
12219;BME280;6172;42.646;23.344;2022-08-24T04:08:16;94561.44;;;16.19;100.00
12219;BME280;6172;42.646;23.344;2022-08-24T04:10:45;94567.72;;;16.28;100.00
12219;BME280;6172;42.646;23.344;2022-08-24T04:13:13;94589.97;;;16.52;100.00
12219;BME280;6172;42.646;23.344;2022-08-24T04:15:42;94582.34;;;16.56;100.00
12219;BME280;6172;42.646;23.344;2022-08-24T04:18:10;94589.81;;;16.55;100.00
12219;BME280;6172;42.646;23.344;2022-08-24T04:20:39;94589.84;;;16.64;100.00
12219;BME280;6172;42.646;23.344;2022-08-24T04:23:10;94577.78;;;16.62;100.00
12219;BME280;6172;42.646;23.344;2022-08-24T04:25:39;94563.41;;;16.58;100.00
12219;BME280;6172;42.646;23.344;2022-08-24T04:28:14;94554.09;;;16.64;100.00
12219;BME280;6172;42.646;23.344;2022-08-24T04:30:44;94580.78;;;16.85;100.00
12219;BME280;6172;42.646;23.344;2022-08-24T04:33:15;94572.50;;;16.76;100.00
12219;BME280;6172;42.646;23.344;2022-08-24T04:35:44;94576.78;;;16.86;100.00
12219;BME280;6172;42.646;23.344;2022-08-24T04:38:17;94588.28;;;16.94;100.00
12219;BME280;6172;42.646;23.344;2022-08-24T04:40:45;94583.25;;;17.10;100.00
12219;BME280;6172;42.646;23.344;2022-08-24T04:43:13;94564.13;;;16.98;100.00
12219;BME280;6172;42.646;23.344;2022-08-24T04:45:44;94579.25;;;17.11;100.00
12219;BME280;6172;42.646;23.344;2022-08-24T04:48:13;94581.25;;;17.20;100.00
12219;BME280;6172;42.646;23.344;2022-08-24T04:50:41;94567.66;;;17.16;100.00
12219;BME280;6172;42.646;23.344;2022-08-24T04:53:11;94560.31;;;17.22;100.00
12219;BME280;6172;42.646;23.344;2022-08-24T04:55:48;94565.97;;;17.28;100.00
12219;BME280;6172;42.646;23.344;2022-08-24T04:58:17;94552.66;;;17.26;100.00
12219;BME280;6172;42.646;23.344;2022-08-24T05:00:45;94565.78;;;17.41;100.00
12219;BME280;6172;42.646;23.344;2022-08-24T05:03:13;94537.63;;;17.27;100.00
12219;BME280;6172;42.646;23.344;2022-08-24T05:05:44;94563.63;;;17.54;100.00
12219;BME280;6172;42.646;23.344;2022-08-24T05:08:12;94561.66;;;17.54;100.00
12219;BME280;6172;42.646;23.344;2022-08-24T05:10:41;94565.19;;;17.64;100.00
12219;BME280;6172;42.646;23.344;2022-08-24T05:13:10;94538.56;;;17.43;100.00
12219;BME280;6172;42.646;23.344;2022-08-24T05:15:40;94544.66;;;17.65;100.00
12219;BME280;6172;42.646;23.344;2022-08-24T05:18:08;94543.59;;;17.71;100.00
12219;BME280;6172;42.646;23.344;2022-08-24T05:20:38;94525.53;;;17.70;100.00
12219;BME280;6172;42.646;23.344;2022-08-24T05:23:06;94545.53;;;17.89;100.00
12219;BME280;6172;42.646;23.344;2022-08-24T05:25:33;94538.00;;;17.98;100.00
12219;BME280;6172;42.646;23.344;2022-08-24T05:28:02;94536.69;;;18.26;100.00
12219;BME280;6172;42.646;23.344;2022-08-24T05:30:31;94520.19;;;18.50;100.00
12219;BME280;6172;42.646;23.344;2022-08-24T05:32:58;94531.25;;;19.11;100.00
12219;BME280;6172;42.646;23.344;2022-08-24T05:35:26;94517.97;;;19.77;100.00
12219;BME280;6172;42.646;23.344;2022-08-24T05:37:53;94488.03;;;19.90;100.00
12219;BME280;6172;42.646;23.344;2022-08-24T05:40:21;94498.78;;;21.06;100.00
12219;BME280;6172;42.646;23.344;2022-08-24T05:43:01;94464.34;;;21.38;100.00
12219;BME280;6172;42.646;23.344;2022-08-24T05:45:33;94478.13;;;22.04;100.00
12219;BME280;6172;42.646;23.344;2022-08-24T05:48:00;94480.53;;;21.91;100.00
12219;BME280;6172;42.646;23.344;2022-08-24T05:50:28;94456.06;;;22.63;100.00
12219;BME280;6172;42.646;23.344;2022-08-24T05:52:59;94451.16;;;23.64;100.00
12219;BME280;6172;42.646;23.344;2022-08-24T05:55:41;94459.03;;;23.82;100.00
12219;BME280;6172;42.646;23.344;2022-08-24T05:58:10;94465.84;;;23.97;100.00
12219;BME280;6172;42.646;23.344;2022-08-24T06:00:39;94463.84;;;23.92;100.00
12219;BME280;6172;42.646;23.344;2022-08-24T06:03:07;94482.44;;;23.42;100.00
12219;BME280;6172;42.646;23.344;2022-08-24T06:05:38;94477.22;;;23.61;100.00
12219;BME280;6172;42.646;23.344;2022-08-24T06:08:06;94477.56;;;23.21;100.00
12219;BME280;6172;42.646;23.344;2022-08-24T06:10:39;94471.41;;;22.95;100.00
12219;BME280;6172;42.646;23.344;2022-08-24T06:13:08;94450.88;;;22.87;100.00
12219;BME280;6172;42.646;23.344;2022-08-24T06:21:36;94446.81;;;23.52;100.00
12219;BME280;6172;42.646;23.344;2022-08-24T06:24:12;94475.06;;;23.23;100.00
12219;BME280;6172;42.646;23.344;2022-08-24T06:26:40;94468.28;;;23.46;100.00
12219;BME280;6172;42.646;23.344;2022-08-24T06:29:24;94473.06;;;23.29;100.00
12219;BME280;6172;42.646;23.344;2022-08-24T06:32:05;94473.97;;;23.96;100.00
12219;BME280;6172;42.646;23.344;2022-08-24T06:34:43;94477.34;;;23.24;100.00
12219;BME280;6172;42.646;23.344;2022-08-24T06:37:22;94480.44;;;23.54;100.00
12219;BME280;6172;42.646;23.344;2022-08-24T06:40:06;94462.94;;;23.31;100.00
12219;BME280;6172;42.646;23.344;2022-08-24T06:42:41;94449.16;;;24.25;100.00
12219;BME280;6172;42.646;23.344;2022-08-24T06:45:23;94445.53;;;23.36;100.00
12219;BME280;6172;42.646;23.344;2022-08-24T06:48:05;94477.63;;;23.43;100.00
12219;BME280;6172;42.646;23.344;2022-08-24T06:50:33;94468.00;;;23.33;100.00
12219;BME280;6172;42.646;23.344;2022-08-24T06:59:41;94483.84;;;24.46;100.00
12219;BME280;6172;42.646;23.344;2022-08-24T07:02:12;94477.44;;;24.84;100.00
12219;BME280;6172;42.646;23.344;2022-08-24T07:04:43;94489.03;;;25.05;100.00
12219;BME280;6172;42.646;23.344;2022-08-24T07:07:42;94479.84;;;25.72;94.31
12219;BME280;6172;42.646;23.344;2022-08-24T07:10:23;94490.78;;;25.70;96.91
12219;BME280;6172;42.646;23.344;2022-08-24T07:12:50;94496.25;;;25.46;97.85
12219;BME280;6172;42.646;23.344;2022-08-24T07:15:22;94503.72;;;25.11;99.36
12219;BME280;6172;42.646;23.344;2022-08-24T07:17:49;94510.41;;;24.14;100.00
12219;BME280;6172;42.646;23.344;2022-08-24T07:20:17;94480.81;;;24.28;100.00
12219;BME280;6172;42.646;23.344;2022-08-24T07:22:44;94495.69;;;24.74;100.00
12219;BME280;6172;42.646;23.344;2022-08-24T07:25:12;94496.69;;;24.82;100.00
12219;BME280;6172;42.646;23.344;2022-08-24T07:27:41;94491.44;;;25.87;90.82
12219;BME280;6172;42.646;23.344;2022-08-24T07:30:09;94480.81;;;26.51;82.82
12219;BME280;6172;42.646;23.344;2022-08-24T07:32:38;94495.81;;;25.77;91.78
12219;BME280;6172;42.646;23.344;2022-08-24T07:35:05;94506.69;;;25.86;88.27
12219;BME280;6172;42.646;23.344;2022-08-24T07:37:32;94499.44;;;26.07;87.82
12219;BME280;6172;42.646;23.344;2022-08-24T07:39:59;94478.31;;;26.18;87.34
12219;BME280;6172;42.646;23.344;2022-08-24T07:42:27;94488.25;;;26.96;82.35
12219;BME280;6172;42.646;23.344;2022-08-24T07:44:54;94467.50;;;25.62;87.24
12219;BME280;6172;42.646;23.344;2022-08-24T07:47:21;94497.28;;;26.25;89.79
12219;BME280;6172;42.646;23.344;2022-08-24T07:49:49;94500.69;;;26.42;89.30
12219;BME280;6172;42.646;23.344;2022-08-24T07:52:16;94467.06;;;26.53;81.19
12219;BME280;6172;42.646;23.344;2022-08-24T07:54:43;94480.47;;;27.32;72.26
12219;BME280;6172;42.646;23.344;2022-08-24T07:57:11;94492.38;;;27.14;72.93
12219;BME280;6172;42.646;23.344;2022-08-24T07:59:42;94462.78;;;27.61;70.05
12219;BME280;6172;42.646;23.344;2022-08-24T08:02:11;94463.78;;;27.82;69.10
12219;BME280;6172;42.646;23.344;2022-08-24T08:04:42;94454.34;;;27.24;71.02
12219;BME280;6172;42.646;23.344;2022-08-24T08:07:11;94464.84;;;27.18;78.62
12219;BME280;6172;42.646;23.344;2022-08-24T08:09:39;94460.50;;;27.78;70.41
12219;BME280;6172;42.646;23.344;2022-08-24T08:12:07;94475.78;;;28.14;68.04
12219;BME280;6172;42.646;23.344;2022-08-24T08:14:37;94445.53;;;27.57;58.67
12219;BME280;6172;42.646;23.344;2022-08-24T08:17:04;94449.13;;;27.15;63.35
12219;BME280;6172;42.646;23.344;2022-08-24T08:19:32;94470.13;;;27.03;68.91
12219;BME280;6172;42.646;23.344;2022-08-24T08:21:59;94456.75;;;26.13;75.89
12219;BME280;6172;42.646;23.344;2022-08-24T08:24:45;94466.56;;;26.54;74.46
12219;BME280;6172;42.646;23.344;2022-08-24T08:27:14;94472.44;;;26.51;76.38
12219;BME280;6172;42.646;23.344;2022-08-24T08:29:43;94467.25;;;26.01;83.85
12219;BME280;6172;42.646;23.344;2022-08-24T08:32:11;94475.97;;;25.40;93.33
12219;BME280;6172;42.646;23.344;2022-08-24T08:34:41;94468.16;;;25.28;93.77
12219;BME280;6172;42.646;23.344;2022-08-24T08:37:09;94449.66;;;24.40;94.98
12219;BME280;6172;42.646;23.344;2022-08-24T08:39:38;94465.78;;;24.80;98.80
12219;BME280;6172;42.646;23.344;2022-08-24T08:42:26;94460.44;;;25.50;95.42
12219;BME280;6172;42.646;23.344;2022-08-24T08:45:20;94470.88;;;25.44;90.38
12219;BME280;6172;42.646;23.344;2022-08-24T08:48:14;94438.22;;;26.09;80.83
12219;BME280;6172;42.646;23.344;2022-08-24T08:51:07;94436.53;;;26.01;82.49
12219;BME280;6172;42.646;23.344;2022-08-24T08:54:09;94461.00;;;26.78;79.54
12219;BME280;6172;42.646;23.344;2022-08-24T08:56:44;94469.88;;;27.01;75.16
12219;BME280;6172;42.646;23.344;2022-08-24T08:59:30;94475.72;;;27.03;78.95
12219;BME280;6172;42.646;23.344;2022-08-24T09:02:12;94472.00;;;26.95;77.57
12219;BME280;6172;42.646;23.344;2022-08-24T09:05:19;94486.56;;;27.12;71.53
12219;BME280;6172;42.646;23.344;2022-08-24T09:08:01;94473.19;;;26.22;73.15
12219;BME280;6172;42.646;23.344;2022-08-24T09:10:47;94469.69;;;26.10;76.15
12219;BME280;6172;42.646;23.344;2022-08-24T09:13:40;94478.22;;;26.82;70.39
12219;BME280;6172;42.646;23.344;2022-08-24T09:16:28;94473.59;;;26.61;70.06
12219;BME280;6172;42.646;23.344;2022-08-24T09:19:10;94467.09;;;27.01;66.70
12219;BME280;6172;42.646;23.344;2022-08-24T09:21:51;94477.09;;;26.37;72.77
12219;BME280;6172;42.646;23.344;2022-08-24T09:24:38;94474.69;;;27.06;67.92
12219;BME280;6172;42.646;23.344;2022-08-24T09:27:21;94431.44;;;27.07;66.97
12219;BME280;6172;42.646;23.344;2022-08-24T09:30:04;94461.31;;;27.17;68.80
12219;BME280;6172;42.646;23.344;2022-08-24T09:32:37;94435.38;;;27.17;66.98
12219;BME280;6172;42.646;23.344;2022-08-24T09:35:13;94455.00;;;27.91;61.85
12219;BME280;6172;42.646;23.344;2022-08-24T09:37:56;94433.63;;;26.12;68.87
12219;BME280;6172;42.646;23.344;2022-08-24T09:40:35;94450.19;;;26.40;70.71
12219;BME280;6172;42.646;23.344;2022-08-24T09:43:22;94447.94;;;27.10;69.28
12219;BME280;6172;42.646;23.344;2022-08-24T09:46:10;94439.09;;;27.80;60.54
12219;BME280;6172;42.646;23.344;2022-08-24T09:49:24;94448.34;;;27.94;59.12
12219;BME280;6172;42.646;23.344;2022-08-24T09:52:12;94423.41;;;26.74;63.71
12219;BME280;6172;42.646;23.344;2022-08-24T09:54:59;94437.13;;;27.20;63.88
12219;BME280;6172;42.646;23.344;2022-08-24T09:57:47;94423.16;;;27.57;61.70
12219;BME280;6172;42.646;23.344;2022-08-24T10:00:23;94418.13;;;27.31;60.10
12219;BME280;6172;42.646;23.344;2022-08-24T10:03:02;94419.72;;;27.27;60.67
12219;BME280;6172;42.646;23.344;2022-08-24T10:06:02;94422.88;;;26.51;66.80
12219;BME280;6172;42.646;23.344;2022-08-24T10:08:44;94401.13;;;26.39;66.34
12219;BME280;6172;42.646;23.344;2022-08-24T10:11:24;94417.09;;;26.44;67.29
12219;BME280;6172;42.646;23.344;2022-08-24T10:14:00;94389.84;;;26.26;68.60
12219;BME280;6172;42.646;23.344;2022-08-24T10:16:37;94398.84;;;25.43;69.22
12219;BME280;6172;42.646;23.344;2022-08-24T10:19:31;94392.09;;;25.27;73.11
12219;BME280;6172;42.646;23.344;2022-08-24T10:22:16;94401.41;;;25.35;73.39
12219;BME280;6172;42.646;23.344;2022-08-24T10:25:07;94399.06;;;25.04;76.20
12219;BME280;6172;42.646;23.344;2022-08-24T10:27:48;94393.03;;;26.05;70.12
12219;BME280;6172;42.646;23.344;2022-08-24T10:33:47;94405.78;;;24.68;74.92
12219;BME280;6172;42.646;23.344;2022-08-24T10:36:41;94395.31;;;25.37;73.67
12219;BME280;6172;42.646;23.344;2022-08-24T10:39:38;94384.13;;;25.42;69.73
12219;BME280;6172;42.646;23.344;2022-08-24T10:42:32;94399.28;;;26.23;66.77
12219;BME280;6172;42.646;23.344;2022-08-24T10:46:32;94397.41;;;25.71;69.65
12219;BME280;6172;42.646;23.344;2022-08-24T10:52:49;94403.13;;;25.84;68.62
12219;BME280;6172;42.646;23.344;2022-08-24T10:55:23;94391.84;;;26.31;67.94
12219;BME280;6172;42.646;23.344;2022-08-24T10:58:04;94393.41;;;25.96;64.36
12219;BME280;6172;42.646;23.344;2022-08-24T11:00:32;94389.09;;;26.49;62.70
12219;BME280;6172;42.646;23.344;2022-08-24T11:03:09;94383.06;;;26.16;65.16
12219;BME280;6172;42.646;23.344;2022-08-24T11:05:41;94392.72;;;26.44;64.21
12219;BME280;6172;42.646;23.344;2022-08-24T11:08:18;94391.78;;;26.06;67.65
12219;BME280;6172;42.646;23.344;2022-08-24T11:11:06;94378.03;;;26.08;70.07
12219;BME280;6172;42.646;23.344;2022-08-24T11:13:35;94390.75;;;26.87;63.99
12219;BME280;6172;42.646;23.344;2022-08-24T11:16:04;94379.69;;;26.95;64.69
12219;BME280;6172;42.646;23.344;2022-08-24T11:18:46;94371.53;;;26.97;67.85
12219;BME280;6172;42.646;23.344;2022-08-24T11:21:30;94380.69;;;26.79;69.25
12219;BME280;6172;42.646;23.344;2022-08-24T11:24:01;94354.81;;;26.25;69.85
12219;BME280;6172;42.646;23.344;2022-08-24T11:26:46;94363.56;;;25.45;75.92
12219;BME280;6172;42.646;23.344;2022-08-24T11:29:15;94386.19;;;24.85;82.33
12219;BME280;6172;42.646;23.344;2022-08-24T11:31:42;94371.59;;;24.57;84.61
12219;BME280;6172;42.646;23.344;2022-08-24T11:34:14;94369.84;;;25.11;81.67
12219;BME280;6172;42.646;23.344;2022-08-24T11:36:42;94356.31;;;25.31;76.87
12219;BME280;6172;42.646;23.344;2022-08-24T11:39:13;94358.78;;;25.40;77.95
12219;BME280;6172;42.646;23.344;2022-08-24T11:41:52;94366.31;;;25.56;80.01
12219;BME280;6172;42.646;23.344;2022-08-24T11:44:36;94368.91;;;25.43;80.64
12219;BME280;6172;42.646;23.344;2022-08-24T11:47:17;94362.63;;;25.72;80.82
12219;BME280;6172;42.646;23.344;2022-08-24T11:49:55;94331.72;;;25.30;80.58
12219;BME280;6172;42.646;23.344;2022-08-24T11:52:36;94348.50;;;25.59;80.21
12219;BME280;6172;42.646;23.344;2022-08-24T11:55:09;94361.56;;;25.75;80.21
12219;BME280;6172;42.646;23.344;2022-08-24T11:57:52;94357.63;;;25.19;78.43
12219;BME280;6172;42.646;23.344;2022-08-24T12:00:26;94365.44;;;24.75;83.32
12219;BME280;6172;42.646;23.344;2022-08-24T12:03:03;94366.13;;;25.03;87.63
12219;BME280;6172;42.646;23.344;2022-08-24T12:05:39;94357.13;;;25.26;92.60
12219;BME280;6172;42.646;23.344;2022-08-24T12:08:18;94351.53;;;25.26;90.29
12219;BME280;6172;42.646;23.344;2022-08-24T12:10:57;94358.75;;;25.81;88.77
12219;BME280;6172;42.646;23.344;2022-08-24T12:13:32;94347.66;;;26.29;88.24
12219;BME280;6172;42.646;23.344;2022-08-24T12:16:06;94344.47;;;26.86;82.99
12219;BME280;6172;42.646;23.344;2022-08-24T12:18:47;94353.09;;;27.44;76.64
12219;BME280;6172;42.646;23.344;2022-08-24T12:21:20;94322.94;;;27.68;75.12
12219;BME280;6172;42.646;23.344;2022-08-24T12:23:50;94326.19;;;27.72;71.01
12219;BME280;6172;42.646;23.344;2022-08-24T12:26:21;94326.38;;;27.93;69.18
12219;BME280;6172;42.646;23.344;2022-08-24T12:28:55;94322.00;;;27.79;71.06
12219;BME280;6172;42.646;23.344;2022-08-24T12:31:35;94326.16;;;27.41;74.08
12219;BME280;6172;42.646;23.344;2022-08-24T12:34:10;94314.16;;;27.27;76.00
12219;BME280;6172;42.646;23.344;2022-08-24T12:36:50;94319.00;;;27.08;79.31
12219;BME280;6172;42.646;23.344;2022-08-24T12:39:23;94343.94;;;27.06;81.68
12219;BME280;6172;42.646;23.344;2022-08-24T12:41:59;94344.84;;;26.77;84.95
12219;BME280;6172;42.646;23.344;2022-08-24T12:44:39;94337.47;;;26.56;86.07
12219;BME280;6172;42.646;23.344;2022-08-24T12:47:09;94340.50;;;26.34;87.12
12219;BME280;6172;42.646;23.344;2022-08-24T12:49:44;94343.28;;;26.34;87.45
12219;BME280;6172;42.646;23.344;2022-08-24T12:55:24;94340.75;;;26.06;91.80
12219;BME280;6172;42.646;23.344;2022-08-24T12:58:04;94336.88;;;26.15;89.11
12219;BME280;6172;42.646;23.344;2022-08-24T13:00:37;94346.34;;;26.06;88.87
12219;BME280;6172;42.646;23.344;2022-08-24T13:03:21;94346.22;;;26.23;88.08
12219;BME280;6172;42.646;23.344;2022-08-24T13:05:53;94330.09;;;26.04;89.43
12219;BME280;6172;42.646;23.344;2022-08-24T13:08:34;94345.31;;;25.79;89.58
12219;BME280;6172;42.646;23.344;2022-08-24T13:11:05;94360.03;;;25.45;94.79
12219;BME280;6172;42.646;23.344;2022-08-24T13:13:43;94354.63;;;25.52;91.92
12219;BME280;6172;42.646;23.344;2022-08-24T13:16:45;94378.81;;;24.98;97.02
12219;BME280;6172;42.646;23.344;2022-08-24T13:19:17;94373.78;;;24.91;100.00
12219;BME280;6172;42.646;23.344;2022-08-24T13:21:58;94357.09;;;24.80;100.00
12219;BME280;6172;42.646;23.344;2022-08-24T13:24:57;94378.72;;;24.47;100.00
12219;BME280;6172;42.646;23.344;2022-08-24T13:31:02;94390.59;;;24.58;100.00
12219;BME280;6172;42.646;23.344;2022-08-24T13:33:39;94384.13;;;23.62;100.00
12219;BME280;6172;42.646;23.344;2022-08-24T13:42:53;94386.13;;;23.39;100.00
12219;BME280;6172;42.646;23.344;2022-08-24T13:45:33;94343.13;;;23.35;100.00
12219;BME280;6172;42.646;23.344;2022-08-24T13:48:17;94377.06;;;23.61;100.00
12219;BME280;6172;42.646;23.344;2022-08-24T13:53:54;94373.50;;;23.66;100.00
12219;BME280;6172;42.646;23.344;2022-08-24T13:56:31;94375.00;;;23.56;100.00
12219;BME280;6172;42.646;23.344;2022-08-24T13:59:08;94366.16;;;23.90;100.00
12219;BME280;6172;42.646;23.344;2022-08-24T14:01:48;94358.31;;;23.50;100.00
12219;BME280;6172;42.646;23.344;2022-08-24T14:07:17;94355.31;;;23.65;100.00
12219;BME280;6172;42.646;23.344;2022-08-24T14:09:56;94347.22;;;23.72;100.00
12219;BME280;6172;42.646;23.344;2022-08-24T14:12:53;94320.09;;;24.01;100.00
12219;BME280;6172;42.646;23.344;2022-08-24T14:15:30;94347.09;;;24.44;100.00
12219;BME280;6172;42.646;23.344;2022-08-24T14:18:13;94358.91;;;24.67;100.00
12219;BME280;6172;42.646;23.344;2022-08-24T14:21:06;94367.13;;;24.32;100.00
12219;BME280;6172;42.646;23.344;2022-08-24T14:23:53;94358.78;;;24.37;100.00
12219;BME280;6172;42.646;23.344;2022-08-24T14:26:59;94357.22;;;24.47;100.00
12219;BME280;6172;42.646;23.344;2022-08-24T14:32:30;94367.53;;;24.63;100.00
12219;BME280;6172;42.646;23.344;2022-08-24T14:35:12;94352.03;;;24.79;100.00
12219;BME280;6172;42.646;23.344;2022-08-24T14:37:53;94344.94;;;24.72;100.00
12219;BME280;6172;42.646;23.344;2022-08-24T14:40:30;94361.09;;;24.90;100.00
12219;BME280;6172;42.646;23.344;2022-08-24T14:43:00;94372.13;;;25.12;100.00
12219;BME280;6172;42.646;23.344;2022-08-24T14:45:41;94369.16;;;24.26;100.00
12219;BME280;6172;42.646;23.344;2022-08-24T14:48:18;94376.19;;;24.54;100.00
12219;BME280;6172;42.646;23.344;2022-08-24T14:50:57;94368.81;;;24.62;100.00
12219;BME280;6172;42.646;23.344;2022-08-24T14:53:46;94374.94;;;24.50;100.00
12219;BME280;6172;42.646;23.344;2022-08-24T14:56:21;94367.53;;;24.63;100.00
12219;BME280;6172;42.646;23.344;2022-08-24T14:58:58;94373.88;;;24.58;100.00
12219;BME280;6172;42.646;23.344;2022-08-24T15:01:41;94372.16;;;24.50;100.00
12219;BME280;6172;42.646;23.344;2022-08-24T15:04:31;94368.88;;;24.35;100.00
12219;BME280;6172;42.646;23.344;2022-08-24T15:07:31;94360.53;;;24.29;100.00
12219;BME280;6172;42.646;23.344;2022-08-24T15:10:00;94358.97;;;24.45;100.00
12219;BME280;6172;42.646;23.344;2022-08-24T15:12:34;94362.81;;;24.36;100.00
12219;BME280;6172;42.646;23.344;2022-08-24T15:15:10;94377.75;;;24.22;100.00
12219;BME280;6172;42.646;23.344;2022-08-24T15:17:47;94373.47;;;24.21;100.00